Alton, Maine
Current Conditions -  °F | °C
As of 7:53 PM on Monday 26 Jan 2015 (Local Time) from KBGR Reporting Station
Overcast Overcast  
Wind Chill: -1°   Ceiling: 20000
Heat Index: 12°   Visibility: 10mi
Dew Point: -5°   Wind: 10mph
Humidity: 46%   Direction: 50°NE
Pressure: 30.24"   Gusts: NA
Location:  45.0236°N, 68.7394°W
Report Text: KBGR 270053Z 05009KT 10SM SCT120 OVC200 M11/M21 A3024 RMK AO2 SLP248 T11111206
Loading
Personal Weather Stations






























Interactive Weather Map New forecast layout! Learn more

10-Day Weather Forecast

Advertisements
Track Severe Weather on mobile